sensor_id;sensor_type;location;lat;lon;timestamp;P1;durP1;ratioP1;P2;durP2;ratioP2
7003;SDS011;3542;48.812;9.146;2022-09-13T00:00:40;3.60;;;3.20;;
7003;SDS011;3542;48.812;9.146;2022-09-13T00:03:07;4.87;;;3.83;;
7003;SDS011;3542;48.812;9.146;2022-09-13T00:05:34;4.87;;;4.30;;
7003;SDS011;3542;48.812;9.146;2022-09-13T00:08:00;4.33;;;3.73;;
7003;SDS011;3542;48.812;9.146;2022-09-13T00:10:26;4.60;;;3.80;;
7003;SDS011;3542;48.812;9.146;2022-09-13T00:12:52;3.83;;;3.43;;
7003;SDS011;3542;48.812;9.146;2022-09-13T00:15:18;3.50;;;3.20;;
7003;SDS011;3542;48.812;9.146;2022-09-13T00:17:44;3.90;;;3.60;;
7003;SDS011;3542;48.812;9.146;2022-09-13T00:20:10;9.50;;;3.33;;
7003;SDS011;3542;48.812;9.146;2022-09-13T00:22:35;4.27;;;3.97;;
7003;SDS011;3542;48.812;9.146;2022-09-13T00:25:02;4.23;;;3.63;;
7003;SDS011;3542;48.812;9.146;2022-09-13T00:27:29;4.60;;;3.20;;
7003;SDS011;3542;48.812;9.146;2022-09-13T00:29:56;4.30;;;3.20;;
7003;SDS011;3542;48.812;9.146;2022-09-13T00:32:22;6.03;;;3.50;;
7003;SDS011;3542;48.812;9.146;2022-09-13T00:34:47;3.27;;;2.97;;
7003;SDS011;3542;48.812;9.146;2022-09-13T00:37:12;3.80;;;3.33;;
7003;SDS011;3542;48.812;9.146;2022-09-13T00:39:38;3.00;;;2.80;;
7003;SDS011;3542;48.812;9.146;2022-09-13T00:42:04;3.63;;;3.33;;
7003;SDS011;3542;48.812;9.146;2022-09-13T00:47:20;4.30;;;3.37;;
7003;SDS011;3542;48.812;9.146;2022-09-13T00:49:49;3.23;;;3.00;;
7003;SDS011;3542;48.812;9.146;2022-09-13T00:52:19;3.57;;;3.27;;
7003;SDS011;3542;48.812;9.146;2022-09-13T00:54:50;5.70;;;2.80;;
7003;SDS011;3542;48.812;9.146;2022-09-13T00:57:20;4.23;;;2.60;;
7003;SDS011;3542;48.812;9.146;2022-09-13T00:59:52;3.20;;;2.30;;
7003;SDS011;3542;48.812;9.146;2022-09-13T02:33:03;3.83;;;2.13;;
7003;SDS011;3542;48.812;9.146;2022-09-13T02:35:44;3.00;;;2.80;;
7003;SDS011;3542;48.812;9.146;2022-09-13T02:38:17;2.30;;;2.10;;
7003;SDS011;3542;48.812;9.146;2022-09-13T02:40:52;3.13;;;2.10;;
7003;SDS011;3542;48.812;9.146;2022-09-13T02:43:34;2.70;;;2.50;;
7003;SDS011;3542;48.812;9.146;2022-09-13T02:46:13;2.67;;;2.47;;
7003;SDS011;3542;48.812;9.146;2022-09-13T02:48:47;3.27;;;2.40;;
7003;SDS011;3542;48.812;9.146;2022-09-13T02:51:42;3.53;;;2.43;;
7003;SDS011;3542;48.812;9.146;2022-09-13T02:54:37;2.37;;;1.90;;
7003;SDS011;3542;48.812;9.146;2022-09-13T02:57:17;3.07;;;2.23;;
7003;SDS011;3542;48.812;9.146;2022-09-13T02:59:51;1.80;;;1.70;;
7003;SDS011;3542;48.812;9.146;2022-09-13T03:02:17;2.47;;;2.27;;
7003;SDS011;3542;48.812;9.146;2022-09-13T03:04:46;5.63;;;2.23;;
7003;SDS011;3542;48.812;9.146;2022-09-13T03:07:13;4.47;;;2.60;;
7003;SDS011;3542;48.812;9.146;2022-09-13T03:09:45;3.17;;;2.87;;
7003;SDS011;3542;48.812;9.146;2022-09-13T03:12:29;10.20;;;2.10;;
7003;SDS011;3542;48.812;9.146;2022-09-13T03:15:10;3.47;;;2.33;;
7003;SDS011;3542;48.812;9.146;2022-09-13T03:20:40;4.03;;;2.70;;
7003;SDS011;3542;48.812;9.146;2022-09-13T03:28:54;3.10;;;2.20;;
7003;SDS011;3542;48.812;9.146;2022-09-13T03:33:58;7.30;;;2.73;;
7003;SDS011;3542;48.812;9.146;2022-09-13T03:39:29;6.07;;;2.50;;
7003;SDS011;3542;48.812;9.146;2022-09-13T03:41:58;3.33;;;3.03;;
7003;SDS011;3542;48.812;9.146;2022-09-13T03:44:30;2.53;;;2.43;;
7003;SDS011;3542;48.812;9.146;2022-09-13T03:46:57;3.50;;;3.20;;
7003;SDS011;3542;48.812;9.146;2022-09-13T03:49:27;4.07;;;2.20;;
7003;SDS011;3542;48.812;9.146;2022-09-13T03:51:54;4.90;;;2.80;;
7003;SDS011;3542;48.812;9.146;2022-09-13T03:54:26;6.07;;;2.40;;
7003;SDS011;3542;48.812;9.146;2022-09-13T03:57:07;3.20;;;2.87;;
7003;SDS011;3542;48.812;9.146;2022-09-13T03:59:36;5.60;;;2.57;;
7003;SDS011;3542;48.812;9.146;2022-09-13T04:02:03;3.23;;;2.93;;
7003;SDS011;3542;48.812;9.146;2022-09-13T04:04:30;3.63;;;2.50;;
7003;SDS011;3542;48.812;9.146;2022-09-13T04:06:57;4.83;;;2.80;;
7003;SDS011;3542;48.812;9.146;2022-09-13T04:09:24;3.17;;;2.23;;
7003;SDS011;3542;48.812;9.146;2022-09-13T04:11:50;7.10;;;2.57;;
7003;SDS011;3542;48.812;9.146;2022-09-13T04:14:15;4.97;;;2.83;;
7003;SDS011;3542;48.812;9.146;2022-09-13T04:16:41;3.47;;;2.80;;
7003;SDS011;3542;48.812;9.146;2022-09-13T04:19:06;6.23;;;2.50;;
7003;SDS011;3542;48.812;9.146;2022-09-13T04:21:32;3.90;;;2.80;;
7003;SDS011;3542;48.812;9.146;2022-09-13T04:23:57;3.93;;;3.00;;
7003;SDS011;3542;48.812;9.146;2022-09-13T04:26:23;3.70;;;2.87;;
7003;SDS011;3542;48.812;9.146;2022-09-13T04:28:48;7.33;;;2.90;;
7003;SDS011;3542;48.812;9.146;2022-09-13T04:31:16;4.43;;;2.90;;
7003;SDS011;3542;48.812;9.146;2022-09-13T04:33:41;5.67;;;2.83;;
7003;SDS011;3542;48.812;9.146;2022-09-13T04:36:07;5.67;;;2.67;;
7003;SDS011;3542;48.812;9.146;2022-09-13T04:38:32;2.83;;;2.50;;
7003;SDS011;3542;48.812;9.146;2022-09-13T04:40:58;4.93;;;3.10;;
7003;SDS011;3542;48.812;9.146;2022-09-13T04:43:23;6.87;;;3.80;;
7003;SDS011;3542;48.812;9.146;2022-09-13T04:45:49;3.50;;;3.20;;
7003;SDS011;3542;48.812;9.146;2022-09-13T04:48:16;3.90;;;3.03;;
7003;SDS011;3542;48.812;9.146;2022-09-13T04:50:41;3.50;;;3.10;;
7003;SDS011;3542;48.812;9.146;2022-09-13T04:53:07;4.20;;;2.87;;
7003;SDS011;3542;48.812;9.146;2022-09-13T04:55:32;9.80;;;3.10;;
7003;SDS011;3542;48.812;9.146;2022-09-13T04:58:00;3.80;;;3.40;;
7003;SDS011;3542;48.812;9.146;2022-09-13T05:00:26;4.40;;;3.17;;
7003;SDS011;3542;48.812;9.146;2022-09-13T05:02:55;3.87;;;3.03;;
7003;SDS011;3542;48.812;9.146;2022-09-13T05:05:21;4.23;;;2.90;;
7003;SDS011;3542;48.812;9.146;2022-09-13T05:07:50;7.33;;;2.90;;
7003;SDS011;3542;48.812;9.146;2022-09-13T05:10:16;4.67;;;2.87;;
7003;SDS011;3542;48.812;9.146;2022-09-13T05:12:42;3.33;;;3.03;;
7003;SDS011;3542;48.812;9.146;2022-09-13T05:15:08;11.57;;;3.00;;
7003;SDS011;3542;48.812;9.146;2022-09-13T05:17:36;4.47;;;3.20;;
7003;SDS011;3542;48.812;9.146;2022-09-13T05:20:01;4.43;;;3.00;;
7003;SDS011;3542;48.812;9.146;2022-09-13T05:22:29;3.37;;;2.90;;
7003;SDS011;3542;48.812;9.146;2022-09-13T05:24:54;2.93;;;2.50;;
7003;SDS011;3542;48.812;9.146;2022-09-13T05:27:20;4.63;;;3.03;;
7003;SDS011;3542;48.812;9.146;2022-09-13T05:29:46;4.13;;;3.07;;
7003;SDS011;3542;48.812;9.146;2022-09-13T05:32:11;2.90;;;2.33;;
7003;SDS011;3542;48.812;9.146;2022-09-13T05:34:37;4.17;;;3.20;;
7003;SDS011;3542;48.812;9.146;2022-09-13T05:37:02;3.37;;;3.07;;
7003;SDS011;3542;48.812;9.146;2022-09-13T05:39:28;3.23;;;3.00;;
7003;SDS011;3542;48.812;9.146;2022-09-13T05:41:53;11.33;;;3.90;;
7003;SDS011;3542;48.812;9.146;2022-09-13T05:44:19;4.10;;;3.17;;
7003;SDS011;3542;48.812;9.146;2022-09-13T05:46:48;3.97;;;3.27;;
7003;SDS011;3542;48.812;9.146;2022-09-13T05:49:13;5.40;;;3.57;;
7003;SDS011;3542;48.812;9.146;2022-09-13T05:51:39;2.77;;;2.53;;
7003;SDS011;3542;48.812;9.146;2022-09-13T05:54:04;6.27;;;3.73;;
7003;SDS011;3542;48.812;9.146;2022-09-13T05:56:30;3.80;;;3.20;;
7003;SDS011;3542;48.812;9.146;2022-09-13T05:58:56;6.80;;;2.87;;
7003;SDS011;3542;48.812;9.146;2022-09-13T06:01:23;5.13;;;3.10;;
7003;SDS011;3542;48.812;9.146;2022-09-13T06:03:51;2.50;;;2.30;;
7003;SDS011;3542;48.812;9.146;2022-09-13T06:06:19;6.30;;;3.23;;
7003;SDS011;3542;48.812;9.146;2022-09-13T06:08:45;4.33;;;3.50;;
7003;SDS011;3542;48.812;9.146;2022-09-13T06:11:12;4.13;;;3.57;;
7003;SDS011;3542;48.812;9.146;2022-09-13T06:13:38;4.53;;;3.07;;
7003;SDS011;3542;48.812;9.146;2022-09-13T06:16:06;6.30;;;3.53;;
7003;SDS011;3542;48.812;9.146;2022-09-13T06:18:33;5.73;;;3.23;;
7003;SDS011;3542;48.812;9.146;2022-09-13T06:21:01;6.30;;;3.33;;
7003;SDS011;3542;48.812;9.146;2022-09-13T06:23:29;3.87;;;3.50;;
7003;SDS011;3542;48.812;9.146;2022-09-13T06:26:04;3.90;;;2.93;;
7003;SDS011;3542;48.812;9.146;2022-09-13T06:28:35;9.57;;;3.47;;
7003;SDS011;3542;48.812;9.146;2022-09-13T06:31:02;4.10;;;3.00;;
7003;SDS011;3542;48.812;9.146;2022-09-13T06:33:36;6.10;;;3.77;;
7003;SDS011;3542;48.812;9.146;2022-09-13T06:36:04;7.10;;;3.80;;
7003;SDS011;3542;48.812;9.146;2022-09-13T06:38:31;5.97;;;3.50;;
7003;SDS011;3542;48.812;9.146;2022-09-13T06:41:03;5.57;;;4.40;;
7003;SDS011;3542;48.812;9.146;2022-09-13T06:43:30;3.87;;;3.50;;
7003;SDS011;3542;48.812;9.146;2022-09-13T06:46:03;5.50;;;4.20;;
7003;SDS011;3542;48.812;9.146;2022-09-13T06:48:31;9.10;;;4.10;;
7003;SDS011;3542;48.812;9.146;2022-09-13T06:51:06;6.53;;;3.30;;
7003;SDS011;3542;48.812;9.146;2022-09-13T06:53:33;7.70;;;4.30;;
7003;SDS011;3542;48.812;9.146;2022-09-13T06:56:10;8.10;;;3.50;;
7003;SDS011;3542;48.812;9.146;2022-09-13T06:58:39;4.10;;;3.10;;
7003;SDS011;3542;48.812;9.146;2022-09-13T07:01:07;3.33;;;3.03;;
7003;SDS011;3542;48.812;9.146;2022-09-13T07:03:38;3.20;;;2.90;;
7003;SDS011;3542;48.812;9.146;2022-09-13T07:06:23;4.17;;;2.60;;
7003;SDS011;3542;48.812;9.146;2022-09-13T07:08:54;3.90;;;2.10;;
7003;SDS011;3542;48.812;9.146;2022-09-13T07:11:22;3.57;;;2.40;;
7003;SDS011;3542;48.812;9.146;2022-09-13T07:13:49;2.77;;;2.57;;
7003;SDS011;3542;48.812;9.146;2022-09-13T07:16:19;4.60;;;2.40;;
7003;SDS011;3542;48.812;9.146;2022-09-13T07:18:53;4.43;;;3.47;;
7003;SDS011;3542;48.812;9.146;2022-09-13T07:21:20;3.93;;;2.70;;
7003;SDS011;3542;48.812;9.146;2022-09-13T07:23:47;5.60;;;2.87;;
7003;SDS011;3542;48.812;9.146;2022-09-13T07:26:13;3.00;;;2.80;;
7003;SDS011;3542;48.812;9.146;2022-09-13T07:28:40;6.70;;;3.30;;
7003;SDS011;3542;48.812;9.146;2022-09-13T07:31:08;6.40;;;3.13;;
7003;SDS011;3542;48.812;9.146;2022-09-13T07:33:35;5.43;;;2.87;;
7003;SDS011;3542;48.812;9.146;2022-09-13T07:36:02;7.13;;;2.90;;
7003;SDS011;3542;48.812;9.146;2022-09-13T07:38:31;9.30;;;3.30;;
7003;SDS011;3542;48.812;9.146;2022-09-13T07:40:57;3.23;;;2.77;;
7003;SDS011;3542;48.812;9.146;2022-09-13T07:43:24;3.50;;;2.90;;
7003;SDS011;3542;48.812;9.146;2022-09-13T07:48:48;4.50;;;2.50;;
7003;SDS011;3542;48.812;9.146;2022-09-13T07:51:19;3.57;;;3.03;;
7003;SDS011;3542;48.812;9.146;2022-09-13T07:53:49;9.20;;;3.17;;
7003;SDS011;3542;48.812;9.146;2022-09-13T07:56:17;5.60;;;2.47;;
7003;SDS011;3542;48.812;9.146;2022-09-13T07:58:44;4.93;;;2.60;;
7003;SDS011;3542;48.812;9.146;2022-09-13T08:01:18;3.17;;;2.80;;
7003;SDS011;3542;48.812;9.146;2022-09-13T08:03:52;4.20;;;2.90;;
7003;SDS011;3542;48.812;9.146;2022-09-13T08:06:22;4.57;;;3.07;;
7003;SDS011;3542;48.812;9.146;2022-09-13T08:08:48;3.70;;;2.63;;
7003;SDS011;3542;48.812;9.146;2022-09-13T08:11:18;5.50;;;3.00;;
7003;SDS011;3542;48.812;9.146;2022-09-13T08:13:49;6.30;;;2.50;;
7003;SDS011;3542;48.812;9.146;2022-09-13T08:16:16;11.10;;;2.77;;
7003;SDS011;3542;48.812;9.146;2022-09-13T08:18:47;9.30;;;2.80;;
7003;SDS011;3542;48.812;9.146;2022-09-13T08:21:14;6.60;;;2.63;;
7003;SDS011;3542;48.812;9.146;2022-09-13T08:23:40;3.80;;;2.60;;
7003;SDS011;3542;48.812;9.146;2022-09-13T08:26:07;5.53;;;2.67;;
7003;SDS011;3542;48.812;9.146;2022-09-13T08:28:34;6.13;;;3.20;;
7003;SDS011;3542;48.812;9.146;2022-09-13T08:31:07;10.80;;;2.90;;
7003;SDS011;3542;48.812;9.146;2022-09-13T08:33:35;4.87;;;2.50;;
7003;SDS011;3542;48.812;9.146;2022-09-13T08:36:01;3.40;;;2.27;;
7003;SDS011;3542;48.812;9.146;2022-09-13T08:38:27;5.43;;;3.03;;
7003;SDS011;3542;48.812;9.146;2022-09-13T08:40:54;10.00;;;3.10;;
7003;SDS011;3542;48.812;9.146;2022-09-13T08:43:31;3.77;;;2.50;;
7003;SDS011;3542;48.812;9.146;2022-09-13T08:46:28;6.23;;;3.03;;
7003;SDS011;3542;48.812;9.146;2022-09-13T08:49:42;7.53;;;3.20;;
7003;SDS011;3542;48.812;9.146;2022-09-13T08:51:51;4.03;;;2.60;;
7003;SDS011;3542;48.812;9.146;2022-09-13T08:54:20;4.07;;;2.00;;
7003;SDS011;3542;48.812;9.146;2022-09-13T09:05:38;3.03;;;2.23;;
7003;SDS011;3542;48.812;9.146;2022-09-13T09:08:36;4.00;;;3.03;;
7003;SDS011;3542;48.812;9.146;2022-09-13T09:11:07;5.40;;;2.83;;
7003;SDS011;3542;48.812;9.146;2022-09-13T09:13:49;5.70;;;2.70;;
7003;SDS011;3542;48.812;9.146;2022-09-13T09:16:29;5.53;;;2.10;;
7003;SDS011;3542;48.812;9.146;2022-09-13T09:19:19;3.60;;;3.03;;
7003;SDS011;3542;48.812;9.146;2022-09-13T09:21:47;7.00;;;2.10;;
7003;SDS011;3542;48.812;9.146;2022-09-13T09:24:17;2.63;;;2.23;;
7003;SDS011;3542;48.812;9.146;2022-09-13T09:26:45;3.53;;;2.50;;
7003;SDS011;3542;48.812;9.146;2022-09-13T09:29:18;3.30;;;3.00;;
7003;SDS011;3542;48.812;9.146;2022-09-13T09:37:41;3.57;;;2.60;;
7003;SDS011;3542;48.812;9.146;2022-09-13T09:40:12;9.20;;;2.80;;
7003;SDS011;3542;48.812;9.146;2022-09-13T09:42:42;12.57;;;3.03;;
7003;SDS011;3542;48.812;9.146;2022-09-13T09:47:50;4.00;;;2.07;;
7003;SDS011;3542;48.812;9.146;2022-09-13T09:50:21;4.23;;;2.53;;
7003;SDS011;3542;48.812;9.146;2022-09-13T09:53:02;7.10;;;2.60;;
7003;SDS011;3542;48.812;9.146;2022-09-13T09:58:40;11.10;;;3.30;;
7003;SDS011;3542;48.812;9.146;2022-09-13T10:01:23;3.33;;;2.53;;
7003;SDS011;3542;48.812;9.146;2022-09-13T10:04:00;8.93;;;2.43;;
7003;SDS011;3542;48.812;9.146;2022-09-13T10:06:43;6.00;;;2.20;;
7003;SDS011;3542;48.812;9.146;2022-09-13T10:11:48;3.73;;;2.13;;
7003;SDS011;3542;48.812;9.146;2022-09-13T10:14:26;5.13;;;2.50;;
7003;SDS011;3542;48.812;9.146;2022-09-13T10:17:01;2.70;;;1.73;;
7003;SDS011;3542;48.812;9.146;2022-09-13T10:19:39;3.63;;;1.73;;
7003;SDS011;3542;48.812;9.146;2022-09-13T10:22:09;2.03;;;1.60;;
7003;SDS011;3542;48.812;9.146;2022-09-13T10:24:36;1.80;;;1.40;;
7003;SDS011;3542;48.812;9.146;2022-09-13T10:27:03;10.43;;;1.93;;
7003;SDS011;3542;48.812;9.146;2022-09-13T10:29:45;8.73;;;1.63;;
7003;SDS011;3542;48.812;9.146;2022-09-13T10:32:12;3.30;;;1.27;;
7003;SDS011;3542;48.812;9.146;2022-09-13T10:34:40;1.63;;;1.50;;
7003;SDS011;3542;48.812;9.146;2022-09-13T10:37:16;3.40;;;1.50;;
7003;SDS011;3542;48.812;9.146;2022-09-13T10:39:54;3.50;;;1.47;;
7003;SDS011;3542;48.812;9.146;2022-09-13T10:42:21;3.37;;;1.30;;
7003;SDS011;3542;48.812;9.146;2022-09-13T10:48:30;2.17;;;1.20;;
7003;SDS011;3542;48.812;9.146;2022-09-13T10:50:36;1.30;;;1.20;;
7003;SDS011;3542;48.812;9.146;2022-09-13T10:53:02;2.33;;;1.40;;
7003;SDS011;3542;48.812;9.146;2022-09-13T10:55:30;1.73;;;0.80;;
7003;SDS011;3542;48.812;9.146;2022-09-13T11:00:32;0.97;;;0.87;;
7003;SDS011;3542;48.812;9.146;2022-09-13T11:06:15;2.70;;;0.87;;
7003;SDS011;3542;48.812;9.146;2022-09-13T11:22:49;1.00;;;0.90;;
7003;SDS011;3542;48.812;9.146;2022-09-13T11:25:24;1.10;;;0.93;;
7003;SDS011;3542;48.812;9.146;2022-09-13T11:36:19;5.63;;;1.20;;
7003;SDS011;3542;48.812;9.146;2022-09-13T11:39:26;4.50;;;2.07;;
7003;SDS011;3542;48.812;9.146;2022-09-13T11:47:43;0.90;;;0.90;;
7003;SDS011;3542;48.812;9.146;2022-09-13T11:50:19;1.03;;;0.80;;
7003;SDS011;3542;48.812;9.146;2022-09-13T11:55:52;1.57;;;1.10;;
7003;SDS011;3542;48.812;9.146;2022-09-13T11:58:33;1.20;;;1.10;;
7003;SDS011;3542;48.812;9.146;2022-09-13T12:01:05;2.83;;;1.07;;
7003;SDS011;3542;48.812;9.146;2022-09-13T12:03:39;1.10;;;1.10;;
7003;SDS011;3542;48.812;9.146;2022-09-13T12:06:18;1.90;;;0.90;;
7003;SDS011;3542;48.812;9.146;2022-09-13T12:08:50;1.30;;;0.80;;
7003;SDS011;3542;48.812;9.146;2022-09-13T12:11:22;2.97;;;0.90;;
7003;SDS011;3542;48.812;9.146;2022-09-13T12:13:55;1.63;;;0.90;;
7003;SDS011;3542;48.812;9.146;2022-09-13T12:16:25;1.23;;;1.13;;
7003;SDS011;3542;48.812;9.146;2022-09-13T12:18:56;1.10;;;0.90;;
7003;SDS011;3542;48.812;9.146;2022-09-13T12:21:27;2.70;;;1.13;;
7003;SDS011;3542;48.812;9.146;2022-09-13T12:24:19;1.63;;;0.90;;
7003;SDS011;3542;48.812;9.146;2022-09-13T12:27:11;3.17;;;1.23;;
7003;SDS011;3542;48.812;9.146;2022-09-13T12:29:47;1.03;;;1.00;;
7003;SDS011;3542;48.812;9.146;2022-09-13T12:32:17;1.90;;;0.90;;
7003;SDS011;3542;48.812;9.146;2022-09-13T12:34:45;0.93;;;0.90;;
7003;SDS011;3542;48.812;9.146;2022-09-13T12:49:17;2.13;;;1.00;;
7003;SDS011;3542;48.812;9.146;2022-09-13T13:02:59;3.40;;;1.10;;
7003;SDS011;3542;48.812;9.146;2022-09-13T13:05:45;1.23;;;0.80;;
7003;SDS011;3542;48.812;9.146;2022-09-13T13:13:35;3.13;;;1.13;;
7003;SDS011;3542;48.812;9.146;2022-09-13T13:18:50;2.33;;;1.23;;
7003;SDS011;3542;48.812;9.146;2022-09-13T13:29:25;3.80;;;0.97;;
7003;SDS011;3542;48.812;9.146;2022-09-13T13:34:39;5.90;;;1.20;;
7003;SDS011;3542;48.812;9.146;2022-09-13T13:55:27;1.83;;;0.80;;
7003;SDS011;3542;48.812;9.146;2022-09-13T14:01:10;2.70;;;1.10;;
7003;SDS011;3542;48.812;9.146;2022-09-13T14:06:48;1.23;;;0.70;;
7003;SDS011;3542;48.812;9.146;2022-09-13T14:09:36;1.13;;;0.97;;
7003;SDS011;3542;48.812;9.146;2022-09-13T14:14:43;0.67;;;0.63;;
7003;SDS011;3542;48.812;9.146;2022-09-13T14:17:33;3.70;;;0.80;;
7003;SDS011;3542;48.812;9.146;2022-09-13T14:20:11;1.20;;;0.80;;
7003;SDS011;3542;48.812;9.146;2022-09-13T14:22:40;0.90;;;0.80;;
7003;SDS011;3542;48.812;9.146;2022-09-13T14:25:14;3.67;;;0.60;;
7003;SDS011;3542;48.812;9.146;2022-09-13T14:27:43;6.33;;;0.67;;
7003;SDS011;3542;48.812;9.146;2022-09-13T14:30:18;1.13;;;0.70;;
7003;SDS011;3542;48.812;9.146;2022-09-13T14:32:45;1.53;;;0.70;;
7003;SDS011;3542;48.812;9.146;2022-09-13T14:35:21;2.73;;;0.60;;
7003;SDS011;3542;48.812;9.146;2022-09-13T14:37:47;0.60;;;0.60;;
7003;SDS011;3542;48.812;9.146;2022-09-13T14:40:17;6.97;;;5.70;;
7003;SDS011;3542;48.812;9.146;2022-09-13T14:43:04;1.93;;;1.47;;
7003;SDS011;3542;48.812;9.146;2022-09-13T14:45:39;1.40;;;0.70;;
7003;SDS011;3542;48.812;9.146;2022-09-13T14:48:21;0.80;;;0.80;;
7003;SDS011;3542;48.812;9.146;2022-09-13T14:51:07;1.67;;;0.70;;
7003;SDS011;3542;48.812;9.146;2022-09-13T14:53:42;2.70;;;0.90;;
7003;SDS011;3542;48.812;9.146;2022-09-13T14:56:12;0.70;;;0.67;;
7003;SDS011;3542;48.812;9.146;2022-09-13T14:58:47;0.83;;;0.70;;
7003;SDS011;3542;48.812;9.146;2022-09-13T15:01:17;6.43;;;0.70;;
7003;SDS011;3542;48.812;9.146;2022-09-13T15:03:46;2.67;;;0.83;;
7003;SDS011;3542;48.812;9.146;2022-09-13T15:06:26;0.60;;;0.60;;
7003;SDS011;3542;48.812;9.146;2022-09-13T15:08:56;0.73;;;0.73;;
7003;SDS011;3542;48.812;9.146;2022-09-13T15:11:35;1.00;;;0.77;;
7003;SDS011;3542;48.812;9.146;2022-09-13T15:14:17;0.80;;;0.70;;
7003;SDS011;3542;48.812;9.146;2022-09-13T15:16:49;1.10;;;0.80;;
7003;SDS011;3542;48.812;9.146;2022-09-13T15:21:48;2.60;;;0.87;;
7003;SDS011;3542;48.812;9.146;2022-09-13T15:24:21;4.00;;;0.90;;
7003;SDS011;3542;48.812;9.146;2022-09-13T15:27:06;1.13;;;0.70;;
7003;SDS011;3542;48.812;9.146;2022-09-13T15:29:40;1.27;;;0.80;;
7003;SDS011;3542;48.812;9.146;2022-09-13T15:32:23;1.23;;;0.80;;
7003;SDS011;3542;48.812;9.146;2022-09-13T15:34:55;3.33;;;0.60;;
7003;SDS011;3542;48.812;9.146;2022-09-13T15:37:33;1.33;;;0.80;;
7003;SDS011;3542;48.812;9.146;2022-09-13T15:40:07;1.47;;;0.60;;
7003;SDS011;3542;48.812;9.146;2022-09-13T15:42:43;1.70;;;0.70;;
7003;SDS011;3542;48.812;9.146;2022-09-13T15:45:09;0.70;;;0.60;;
7003;SDS011;3542;48.812;9.146;2022-09-13T15:47:35;1.23;;;0.70;;
7003;SDS011;3542;48.812;9.146;2022-09-13T15:50:01;1.10;;;0.57;;
7003;SDS011;3542;48.812;9.146;2022-09-13T15:52:27;1.33;;;0.70;;
7003;SDS011;3542;48.812;9.146;2022-09-13T15:54:52;1.40;;;0.70;;
7003;SDS011;3542;48.812;9.146;2022-09-13T15:57:27;0.93;;;0.60;;
7003;SDS011;3542;48.812;9.146;2022-09-13T15:59:54;1.77;;;0.60;;
7003;SDS011;3542;48.812;9.146;2022-09-13T16:02:27;0.97;;;0.87;;
7003;SDS011;3542;48.812;9.146;2022-09-13T16:04:56;2.60;;;1.00;;
7003;SDS011;3542;48.812;9.146;2022-09-13T16:07:22;1.57;;;0.70;;
7003;SDS011;3542;48.812;9.146;2022-09-13T16:09:48;3.80;;;0.67;;
7003;SDS011;3542;48.812;9.146;2022-09-13T16:12:14;3.23;;;0.80;;
7003;SDS011;3542;48.812;9.146;2022-09-13T16:14:40;4.83;;;0.77;;
7003;SDS011;3542;48.812;9.146;2022-09-13T16:17:09;1.93;;;1.00;;
7003;SDS011;3542;48.812;9.146;2022-09-13T16:19:55;0.90;;;0.77;;
7003;SDS011;3542;48.812;9.146;2022-09-13T16:22:21;0.70;;;0.70;;
7003;SDS011;3542;48.812;9.146;2022-09-13T16:24:47;1.03;;;0.90;;
7003;SDS011;3542;48.812;9.146;2022-09-13T16:27:13;0.90;;;0.80;;
7003;SDS011;3542;48.812;9.146;2022-09-13T16:29:40;1.73;;;0.80;;
7003;SDS011;3542;48.812;9.146;2022-09-13T16:32:07;0.90;;;0.90;;
7003;SDS011;3542;48.812;9.146;2022-09-13T16:34:33;5.70;;;1.23;;
7003;SDS011;3542;48.812;9.146;2022-09-13T16:36:58;2.50;;;1.00;;
7003;SDS011;3542;48.812;9.146;2022-09-13T16:39:24;4.63;;;1.00;;
7003;SDS011;3542;48.812;9.146;2022-09-13T16:41:49;3.33;;;0.90;;
7003;SDS011;3542;48.812;9.146;2022-09-13T16:44:15;1.47;;;1.37;;
7003;SDS011;3542;48.812;9.146;2022-09-13T16:46:41;1.60;;;1.07;;
7003;SDS011;3542;48.812;9.146;2022-09-13T16:49:07;1.70;;;1.03;;
7003;SDS011;3542;48.812;9.146;2022-09-13T16:51:33;3.40;;;1.73;;
7003;SDS011;3542;48.812;9.146;2022-09-13T16:53:59;2.07;;;1.97;;
7003;SDS011;3542;48.812;9.146;2022-09-13T16:56:25;2.37;;;2.00;;
7003;SDS011;3542;48.812;9.146;2022-09-13T16:58:51;3.47;;;2.93;;
7003;SDS011;3542;48.812;9.146;2022-09-13T17:01:25;3.93;;;3.03;;
7003;SDS011;3542;48.812;9.146;2022-09-13T17:03:52;2.20;;;2.10;;
7003;SDS011;3542;48.812;9.146;2022-09-13T17:06:19;4.70;;;2.67;;
7003;SDS011;3542;48.812;9.146;2022-09-13T17:08:49;2.50;;;2.30;;
7003;SDS011;3542;48.812;9.146;2022-09-13T17:11:17;2.43;;;2.23;;
7003;SDS011;3542;48.812;9.146;2022-09-13T17:13:44;6.67;;;2.50;;
7003;SDS011;3542;48.812;9.146;2022-09-13T17:16:44;3.40;;;2.10;;
7003;SDS011;3542;48.812;9.146;2022-09-13T17:19:03;3.17;;;1.77;;
7003;SDS011;3542;48.812;9.146;2022-09-13T17:21:31;3.10;;;1.90;;
7003;SDS011;3542;48.812;9.146;2022-09-13T17:23:57;1.77;;;1.53;;
7003;SDS011;3542;48.812;9.146;2022-09-13T17:26:23;1.70;;;1.40;;
7003;SDS011;3542;48.812;9.146;2022-09-13T17:28:49;4.50;;;1.20;;
7003;SDS011;3542;48.812;9.146;2022-09-13T17:31:16;9.40;;;1.77;;
7003;SDS011;3542;48.812;9.146;2022-09-13T17:33:42;5.17;;;2.03;;
7003;SDS011;3542;48.812;9.146;2022-09-13T17:36:09;8.33;;;2.77;;
7003;SDS011;3542;48.812;9.146;2022-09-13T17:38:35;3.37;;;1.57;;
7003;SDS011;3542;48.812;9.146;2022-09-13T17:41:02;4.13;;;2.03;;
7003;SDS011;3542;48.812;9.146;2022-09-13T17:43:33;2.30;;;2.10;;
7003;SDS011;3542;48.812;9.146;2022-09-13T17:46:03;2.07;;;1.57;;
7003;SDS011;3542;48.812;9.146;2022-09-13T17:48:29;3.23;;;1.60;;
7003;SDS011;3542;48.812;9.146;2022-09-13T17:51:02;2.20;;;1.17;;
7003;SDS011;3542;48.812;9.146;2022-09-13T17:53:39;4.60;;;4.20;;
7003;SDS011;3542;48.812;9.146;2022-09-13T17:56:07;7.77;;;4.57;;
7003;SDS011;3542;48.812;9.146;2022-09-13T17:58:33;2.93;;;2.57;;
7003;SDS011;3542;48.812;9.146;2022-09-13T18:01:03;3.80;;;2.10;;
7003;SDS011;3542;48.812;9.146;2022-09-13T18:03:31;1.70;;;1.60;;
7003;SDS011;3542;48.812;9.146;2022-09-13T18:05:58;2.60;;;1.60;;
7003;SDS011;3542;48.812;9.146;2022-09-13T18:08:25;2.40;;;1.50;;
7003;SDS011;3542;48.812;9.146;2022-09-13T18:10:51;4.53;;;1.37;;
7003;SDS011;3542;48.812;9.146;2022-09-13T18:13:17;3.57;;;1.30;;
7003;SDS011;3542;48.812;9.146;2022-09-13T18:15:43;1.70;;;1.60;;
7003;SDS011;3542;48.812;9.146;2022-09-13T18:18:10;2.23;;;1.60;;
7003;SDS011;3542;48.812;9.146;2022-09-13T18:20:36;2.50;;;1.40;;
7003;SDS011;3542;48.812;9.146;2022-09-13T18:23:02;4.37;;;2.60;;
7003;SDS011;3542;48.812;9.146;2022-09-13T18:25:27;7.00;;;3.13;;
7003;SDS011;3542;48.812;9.146;2022-09-13T18:27:53;2.90;;;1.80;;
7003;SDS011;3542;48.812;9.146;2022-09-13T18:30:18;3.50;;;1.60;;
7003;SDS011;3542;48.812;9.146;2022-09-13T18:32:44;1.70;;;1.60;;
7003;SDS011;3542;48.812;9.146;2022-09-13T18:35:09;3.23;;;1.90;;
7003;SDS011;3542;48.812;9.146;2022-09-13T18:37:35;2.50;;;2.30;;
7003;SDS011;3542;48.812;9.146;2022-09-13T18:40:00;3.13;;;1.70;;
7003;SDS011;3542;48.812;9.146;2022-09-13T18:42:27;2.43;;;1.60;;
7003;SDS011;3542;48.812;9.146;2022-09-13T18:44:53;2.93;;;1.53;;
7003;SDS011;3542;48.812;9.146;2022-09-13T18:47:18;2.53;;;1.43;;
7003;SDS011;3542;48.812;9.146;2022-09-13T18:49:44;5.50;;;1.67;;
7003;SDS011;3542;48.812;9.146;2022-09-13T18:52:09;1.33;;;1.13;;
7003;SDS011;3542;48.812;9.146;2022-09-13T18:54:36;2.73;;;1.73;;
7003;SDS011;3542;48.812;9.146;2022-09-13T18:57:01;4.73;;;2.00;;
7003;SDS011;3542;48.812;9.146;2022-09-13T18:59:27;1.97;;;1.77;;
7003;SDS011;3542;48.812;9.146;2022-09-13T19:01:54;4.70;;;2.10;;
7003;SDS011;3542;48.812;9.146;2022-09-13T19:04:20;2.13;;;2.00;;
7003;SDS011;3542;48.812;9.146;2022-09-13T19:06:47;1.83;;;1.70;;
7003;SDS011;3542;48.812;9.146;2022-09-13T19:09:17;3.93;;;2.10;;
7003;SDS011;3542;48.812;9.146;2022-09-13T19:11:45;2.30;;;1.83;;
7003;SDS011;3542;48.812;9.146;2022-09-13T19:14:15;2.43;;;1.53;;
7003;SDS011;3542;48.812;9.146;2022-09-13T19:16:42;3.00;;;2.10;;
7003;SDS011;3542;48.812;9.146;2022-09-13T19:19:08;2.20;;;1.90;;
7003;SDS011;3542;48.812;9.146;2022-09-13T19:21:34;7.60;;;2.00;;
7003;SDS011;3542;48.812;9.146;2022-09-13T19:23:59;2.53;;;1.63;;
7003;SDS011;3542;48.812;9.146;2022-09-13T19:26:26;4.40;;;2.20;;
7003;SDS011;3542;48.812;9.146;2022-09-13T19:28:55;3.17;;;1.90;;
7003;SDS011;3542;48.812;9.146;2022-09-13T19:31:24;3.63;;;1.87;;
7003;SDS011;3542;48.812;9.146;2022-09-13T19:33:52;2.90;;;1.73;;
7003;SDS011;3542;48.812;9.146;2022-09-13T19:36:20;3.00;;;2.30;;
7003;SDS011;3542;48.812;9.146;2022-09-13T19:38:47;4.63;;;1.73;;